Terminal Aerodrome Forecast
Issued by NWS

Home | Current Version | Previous Version | Text Only | Print | Product List | Glossary On
Versions: 1 2 3 4 5 6 7 8 9 10 11 12 13 14
000
FTUS45 KRIW 061740
TAFRKS
TAF
KRKS 061740Z 0618/0718 09007KT P6SM SCT025 BKN045
     FM062000 10008KT P6SM VCTS SCT025 BKN050CB
     FM070400 09009KT P6SM VCSH FEW020 BKN045
     FM070700 09007KT P6SM SCT045 BKN080
     FM071200 VRB05KT P6SM VCFG SCT080
     FM071600 VRB04KT P6SM SCT080 SCT120=

USA.gov is the U.S. government's official web portal to all federal, state and local government web resources and services.